Time;durP1;ratioP1;P1;durP2;ratioP2;P2;SDS_P1;SDS_P2;PMS_P1;PMS_P2;Temp;Humidity;BMP_temperature;BMP_pressure;BME280_temperature;BME280_humidity;BME280_pressure;Samples;Min_cycle;Max_cycle;Signal;HPM_P1;HPM_P2
2022/01/07 00:01:52;;;;;;;9.30;6.47;;;-1.60;99.90;;;;;;5075138;28;20204;-70
2022/01/07 00:04:19;;;;;;;10.07;6.60;;;-1.50;99.90;;;;;;5074615;28;20781;-70
2022/01/07 00:06:45;;;;;;;9.52;6.55;;;-1.50;99.90;;;;;;5075064;28;20227;-71
2022/01/07 00:09:12;;;;;;;6.07;5.47;;;-1.50;99.90;;;;;;5074648;28;20320;-71
2022/01/07 00:11:39;;;;;;;7.80;5.70;;;-1.50;99.90;;;;;;5074997;28;20275;-71
2022/01/07 00:14:06;;;;;;;8.27;5.63;;;-1.50;99.90;;;;;;5074938;28;20238;-70
2022/01/07 00:16:33;;;;;;;6.85;5.75;;;-1.50;99.90;;;;;;5074787;28;20286;-71
2022/01/07 00:19:01;;;;;;;7.13;5.50;;;-1.40;99.90;;;;;;5074471;28;20294;-71
2022/01/07 00:21:28;;;;;;;6.07;5.22;;;-1.40;99.90;;;;;;5074772;28;20232;-72
2022/01/07 00:23:55;;;;;;;6.22;4.95;;;-1.40;99.90;;;;;;5074267;28;20386;-72
2022/01/07 00:26:22;;;;;;;5.18;4.68;;;-1.30;99.90;;;;;;5074234;28;20290;-71
2022/01/07 00:28:49;;;;;;;5.55;5.03;;;-1.30;99.90;;;;;;5074330;28;20216;-75
2022/01/07 00:31:16;;;;;;;5.93;4.47;;;-1.20;99.90;;;;;;5074089;28;20734;-75
2022/01/07 09:13:41;;;;;;;5.45;4.95;;;0.00;99.90;;;;;;5366291;22;20251;-69
2022/01/07 09:16:08;;;;;;;6.10;5.18;;;0.10;99.90;;;;;;5073752;28;20580;-70
2022/01/07 09:18:35;;;;;;;6.30;5.10;;;0.10;99.90;;;;;;5073791;28;20290;-71
2022/01/07 09:21:01;;;;;;;6.20;5.60;;;0.10;99.90;;;;;;5073788;28;20239;-70
2022/01/07 09:23:28;;;;;;;6.93;4.85;;;0.20;99.90;;;;;;5073399;28;20227;-70
2022/01/07 09:25:55;;;;;;;6.90;6.20;;;0.20;99.90;;;;;;5073654;28;20214;-69
2022/01/07 09:28:22;;;;;;;5.55;5.05;;;0.20;99.90;;;;;;5073543;28;20239;-69
2022/01/07 09:30:50;;;;;;;6.28;5.68;;;0.20;99.90;;;;;;5073496;28;20227;-69
2022/01/07 09:33:17;;;;;;;5.75;4.82;;;0.20;99.90;;;;;;5073521;28;20303;-72
2022/01/07 09:35:45;;;;;;;5.85;5.10;;;0.20;99.90;;;;;;5076774;28;20239;-70
2022/01/07 09:38:12;;;;;;;5.75;5.25;;;0.20;99.90;;;;;;5073719;28;20211;-71
2022/01/07 09:40:40;;;;;;;5.90;5.03;;;0.30;99.90;;;;;;5075165;28;20263;-71
2022/01/07 09:43:09;;;;;;;4.70;4.22;;;0.30;99.90;;;;;;5077481;28;20277;-74
2022/01/07 09:45:37;;;;;;;5.55;4.47;;;0.40;99.90;;;;;;5076668;28;20253;-74
2022/01/07 09:48:08;;;;;;;5.97;5.40;;;0.50;99.90;;;;;;5075644;28;20200;-71
2022/01/07 09:50:36;;;;;;;5.72;5.13;;;0.60;99.90;;;;;;5074781;28;20194;-71
2022/01/07 09:53:07;;;;;;;5.32;4.63;;;0.60;99.90;;;;;;5075145;28;20223;-71
2022/01/07 09:55:36;;;;;;;5.78;5.03;;;0.70;99.90;;;;;;5075529;28;20273;-71
2022/01/07 09:58:05;;;;;;;5.15;4.75;;;0.70;99.90;;;;;;5076986;28;20208;-71
2022/01/07 10:00:38;;;;;;;5.68;4.88;;;0.70;99.90;;;;;;5076570;28;20207;-73
2022/01/07 10:03:09;;;;;;;4.68;4.28;;;0.60;99.90;;;;;;5077586;28;20748;-74
2022/01/07 10:05:45;;;;;;;5.25;4.75;;;0.60;99.90;;;;;;5077813;28;20188;-74
2022/01/07 10:08:21;;;;;;;5.47;4.13;;;0.70;99.90;;;;;;5077763;28;20179;-74
2022/01/07 10:10:49;;;;;;;4.55;4.25;;;0.70;99.90;;;;;;5076947;28;20257;-70
2022/01/07 10:13:20;;;;;;;4.18;3.78;;;0.60;99.90;;;;;;5077587;28;20556;-69
2022/01/07 10:15:47;;;;;;;4.10;3.80;;;0.70;99.90;;;;;;5076368;28;20188;-69
2022/01/07 10:18:17;;;;;;;4.93;4.43;;;0.70;99.90;;;;;;5074275;28;20299;-67
2022/01/07 10:20:45;;;;;;;4.60;4.05;;;0.80;99.90;;;;;;5076954;28;20192;-69
2022/01/07 10:23:14;;;;;;;4.15;3.75;;;0.80;99.90;;;;;;5076912;28;20311;-71
2022/01/07 10:25:42;;;;;;;3.92;3.63;;;0.80;99.90;;;;;;5076509;28;20560;-71
2022/01/07 10:28:11;;;;;;;3.63;3.33;;;0.80;99.90;;;;;;5076951;28;20200;-73
2022/01/07 10:30:40;;;;;;;3.70;3.25;;;0.90;99.90;;;;;;5076596;28;20667;-73
2022/01/07 10:33:27;;;;;;;3.17;2.97;;;0.90;99.90;;;;;;5076623;28;20306;-73
2022/01/07 10:35:55;;;;;;;3.00;2.80;;;1.00;99.90;;;;;;5076770;28;20189;-72
2022/01/07 10:38:23;;;;;;;3.92;3.60;;;1.00;99.90;;;;;;5076663;28;20294;-72
2022/01/07 10:40:52;;;;;;;4.47;3.10;;;1.00;99.90;;;;;;5076635;28;20204;-72
2022/01/07 10:43:21;;;;;;;2.95;2.85;;;1.00;99.90;;;;;;5076397;28;20307;-72
2022/01/07 10:45:50;;;;;;;2.88;2.67;;;1.10;99.90;;;;;;5076608;28;20287;-73
2022/01/07 10:48:19;;;;;;;3.35;2.90;;;1.10;99.90;;;;;;5076110;28;20291;-73
2022/01/07 10:50:49;;;;;;;2.80;2.70;;;1.20;99.90;;;;;;5076389;28;20200;-73
2022/01/07 10:53:25;;;;;;;5.00;3.33;;;1.20;99.90;;;;;;5076812;28;20302;-73
2022/01/07 10:56:01;;;;;;;3.60;3.30;;;1.10;99.90;;;;;;5076175;28;20635;-73
2022/01/07 10:58:29;;;;;;;3.17;2.90;;;1.10;99.90;;;;;;5076027;28;20703;-73
2022/01/07 11:00:56;;;;;;;2.78;2.58;;;1.10;99.90;;;;;;5075931;28;20758;-74
2022/01/07 11:03:23;;;;;;;3.42;3.22;;;1.10;99.90;;;;;;5076105;28;20246;-75
2022/01/07 11:05:51;;;;;;;4.13;3.55;;;1.00;99.90;;;;;;5075829;28;20644;-76
2022/01/07 11:08:19;;;;;;;3.22;3.03;;;0.90;99.90;;;;;;5076268;28;20227;-74
2022/01/07 11:10:46;;;;;;;3.20;3.00;;;0.90;99.90;;;;;;5076146;28;20275;-72
2022/01/07 11:13:13;;;;;;;3.78;3.35;;;0.90;99.90;;;;;;5075902;28;20224;-72
2022/01/07 11:15:40;;;;;;;3.03;2.83;;;0.90;99.90;;;;;;5076104;28;20204;-73
2022/01/07 11:18:07;;;;;;;4.45;3.65;;;0.80;99.90;;;;;;5076178;28;20196;-72
2022/01/07 11:20:34;;;;;;;3.78;3.47;;;0.80;99.90;;;;;;5076078;28;20283;-72
2022/01/07 11:23:03;;;;;;;3.63;3.10;;;0.80;99.90;;;;;;5076134;28;20306;-74
2022/01/07 11:25:33;;;;;;;3.75;3.55;;;0.90;99.90;;;;;;5076214;28;20220;-73
2022/01/07 11:28:01;;;;;;;3.67;3.38;;;0.90;99.90;;;;;;5076385;28;20236;-74
2022/01/07 11:30:32;;;;;;;3.92;3.63;;;0.90;99.90;;;;;;5075769;28;20200;-73
2022/01/07 11:32:59;;;;;;;4.65;3.08;;;0.90;99.90;;;;;;5075879;28;20285;-73
2022/01/07 11:35:45;;;;;;;3.50;3.15;;;1.00;99.90;;;;;;5075705;28;20750;-75
2022/01/07 11:38:38;;;;;;;3.78;3.20;;;1.00;99.90;;;;;;5075946;28;20274;-71
2022/01/07 11:41:14;;;;;;;4.40;4.07;;;1.10;99.90;;;;;;5075831;28;20731;-74
2022/01/07 11:43:46;;;;;;;4.40;3.53;;;0.90;99.90;;;;;;5075877;28;20251;-73
2022/01/07 11:46:37;;;;;;;3.67;3.28;;;1.00;99.90;;;;;;5075672;28;20265;-73
2022/01/07 11:49:04;;;;;;;4.75;3.67;;;0.90;99.90;;;;;;5076041;28;20184;-73
2022/01/07 11:51:40;;;;;;;3.42;3.22;;;1.00;99.90;;;;;;5075897;28;20296;-73
2022/01/07 11:54:13;;;;;;;3.28;2.97;;;1.00;99.90;;;;;;5075194;28;20219;-73
2022/01/07 11:56:41;;;;;;;3.33;3.13;;;0.90;99.90;;;;;;5075423;28;20184;-72
2022/01/07 11:59:23;;;;;;;2.70;2.60;;;0.90;99.90;;;;;;5075421;28;20295;-72
2022/01/07 12:02:02;;;;;;;3.17;2.90;;;0.90;99.90;;;;;;5075322;28;20225;-71
2022/01/07 12:04:31;;;;;;;3.10;2.90;;;0.90;99.90;;;;;;5074905;28;20204;-71
2022/01/07 12:06:59;;;;;;;4.28;3.92;;;0.90;99.90;;;;;;5074794;28;20624;-72
2022/01/07 12:09:38;;;;;;;3.85;3.60;;;0.90;99.90;;;;;;5075123;28;20246;-72
2022/01/07 12:12:07;;;;;;;3.70;3.50;;;0.80;99.90;;;;;;5074893;28;20239;-71
2022/01/07 12:14:37;;;;;;;3.38;3.17;;;0.90;99.90;;;;;;5075258;28;20295;-70
2022/01/07 12:17:06;;;;;;;5.85;3.80;;;0.90;99.90;;;;;;5079370;28;20263;-69
2022/01/07 12:20:06;;;;;;;3.88;3.58;;;0.80;99.90;;;;;;5077320;28;20239;-71
2022/01/07 12:22:33;;;;;;;4.25;3.55;;;0.80;99.90;;;;;;5081959;28;20228;-71
2022/01/07 12:25:03;;;;;;;3.85;3.33;;;0.80;99.90;;;;;;5085300;28;20220;-71
2022/01/07 12:27:31;;;;;;;3.58;3.28;;;0.80;99.90;;;;;;5085291;28;20230;-71
2022/01/07 12:30:01;;;;;;;3.70;3.50;;;0.80;99.90;;;;;;5084603;28;20199;-71
2022/01/07 12:32:34;;;;;;;3.90;3.60;;;0.70;99.90;;;;;;5079867;28;20581;-71
2022/01/07 12:35:01;;;;;;;5.57;4.07;;;0.70;99.90;;;;;;5076640;28;20203;-71
2022/01/07 12:37:29;;;;;;;4.53;3.50;;;0.50;99.90;;;;;;5077499;28;20200;-71
2022/01/07 12:39:57;;;;;;;4.53;3.90;;;0.50;99.90;;;;;;5074678;28;20303;-72
2022/01/07 12:42:29;;;;;;;3.13;2.92;;;0.60;99.90;;;;;;5074139;28;20311;-73
2022/01/07 12:44:58;;;;;;;3.88;3.58;;;0.60;99.90;;;;;;5074327;28;20315;-72
2022/01/07 12:47:27;;;;;;;4.55;3.42;;;0.60;99.90;;;;;;5074306;28;20318;-72
2022/01/07 12:49:55;;;;;;;3.25;3.05;;;0.70;99.90;;;;;;5074080;28;20221;-72
2022/01/07 12:52:25;;;;;;;3.40;3.10;;;0.80;99.90;;;;;;5073960;28;20224;-73
2022/01/07 12:54:54;;;;;;;2.83;2.63;;;0.90;99.90;;;;;;5073720;28;20362;-72
2022/01/07 12:57:28;;;;;;;3.33;3.13;;;0.90;99.90;;;;;;5074107;28;20306;-72
2022/01/07 13:00:14;;;;;;;3.17;2.97;;;1.00;99.90;;;;;;5073653;28;20279;-72
2022/01/07 13:02:43;;;;;;;2.58;2.47;;;1.00;99.90;;;;;;5073936;28;20749;-72
2022/01/07 13:05:18;;;;;;;3.17;3.00;;;1.00;99.90;;;;;;5073956;28;20238;-67
2022/01/07 13:07:46;;;;;;;2.88;2.67;;;1.00;99.90;;;;;;5074012;28;20274;-68
2022/01/07 13:10:18;;;;;;;2.30;2.10;;;1.00;99.90;;;;;;5073403;28;20655;-68
2022/01/07 13:12:58;;;;;;;2.90;2.70;;;1.00;99.90;;;;;;5073356;28;20695;-69
2022/01/07 13:15:40;;;;;;;2.40;2.30;;;1.10;99.90;;;;;;5073388;28;20290;-69
2022/01/07 13:18:25;;;;;;;2.90;2.70;;;1.10;99.90;;;;;;5073323;28;20188;-68
2022/01/07 13:20:55;;;;;;;2.50;2.40;;;1.10;99.90;;;;;;5073696;28;20271;-68
2022/01/07 13:23:24;;;;;;;2.65;2.47;;;1.10;99.90;;;;;;5073518;28;20223;-68
2022/01/07 13:25:51;;;;;;;2.97;2.60;;;1.10;99.90;;;;;;5073238;28;20219;-69
2022/01/07 13:28:36;;;;;;;2.30;2.20;;;1.00;99.90;;;;;;5073667;28;20625;-69
2022/01/07 13:31:03;;;;;;;2.10;2.00;;;1.00;99.90;;;;;;5073901;28;20184;-68
2022/01/07 13:33:32;;;;;;;2.30;2.15;;;1.10;99.90;;;;;;5073568;28;20223;-67
2022/01/07 13:36:00;;;;;;;2.45;2.35;;;1.20;99.90;;;;;;5073293;28;20192;-66
2022/01/07 13:38:28;;;;;;;2.85;2.55;;;1.20;99.90;;;;;;5073666;28;20200;-67
2022/01/07 13:41:09;;;;;;;3.00;2.80;;;1.30;99.90;;;;;;5073752;28;20275;-69
2022/01/07 13:43:39;;;;;;;2.83;2.70;;;1.30;99.90;;;;;;5073504;28;20302;-69
2022/01/07 13:46:15;;;;;;;2.17;2.08;;;1.30;99.90;;;;;;5073214;28;20319;-69
2022/01/07 13:48:54;;;;;;;2.03;1.92;;;1.30;99.90;;;;;;5073664;28;20188;-69
2022/01/07 13:51:22;;;;;;;2.10;2.00;;;1.40;99.90;;;;;;5073610;28;20188;-68
2022/01/07 13:54:09;;;;;;;2.10;2.00;;;1.40;99.90;;;;;;5075434;28;20310;-70
2022/01/07 13:56:37;;;;;;;2.47;2.28;;;1.40;99.90;;;;;;5077580;28;20267;-70
2022/01/07 13:59:08;;;;;;;4.18;2.60;;;1.40;99.90;;;;;;5077131;28;20615;-69
2022/01/07 14:01:35;;;;;;;2.40;2.30;;;1.20;99.90;;;;;;5077571;28;20196;-69
2022/01/07 14:04:03;;;;;;;2.20;2.10;;;1.20;99.90;;;;;;5077551;28;20220;-69
2022/01/07 14:06:30;;;;;;;2.30;2.20;;;1.20;99.90;;;;;;5077260;28;20299;-70
2022/01/07 14:09:14;;;;;;;2.47;2.38;;;1.10;99.90;;;;;;5077221;28;20291;-67
2022/01/07 14:11:41;;;;;;;2.45;2.25;;;1.10;99.90;;;;;;5076955;28;20741;-69
2022/01/07 14:14:19;;;;;;;2.95;2.38;;;1.10;99.90;;;;;;5076785;28;20315;-69
2022/01/07 14:16:47;;;;;;;2.92;2.65;;;1.00;99.90;;;;;;5077388;28;20546;-69
2022/01/07 14:19:14;;;;;;;2.88;2.78;;;1.00;99.90;;;;;;5076722;28;20733;-69
2022/01/07 14:21:42;;;;;;;2.00;1.98;;;1.00;99.90;;;;;;5076899;28;20289;-68
2022/01/07 14:24:11;;;;;;;2.33;2.22;;;1.00;99.90;;;;;;5077079;28;20220;-69
2022/01/07 14:26:46;;;;;;;2.22;2.13;;;1.00;99.90;;;;;;5076904;28;20219;-69
2022/01/07 14:29:13;;;;;;;2.60;2.50;;;1.00;99.90;;;;;;5076795;28;20207;-69
2022/01/07 14:31:41;;;;;;;2.20;2.10;;;1.00;99.90;;;;;;5076694;28;20295;-71
2022/01/07 14:34:08;;;;;;;2.35;2.25;;;1.00;99.90;;;;;;5076555;28;20259;-70
2022/01/07 14:36:35;;;;;;;2.28;2.17;;;1.00;99.90;;;;;;5076635;28;20196;-70
2022/01/07 14:39:02;;;;;;;2.72;2.47;;;1.00;99.90;;;;;;5076563;28;20287;-70
2022/01/07 14:41:29;;;;;;;2.33;2.22;;;1.00;99.90;;;;;;5076500;28;20208;-70
2022/01/07 14:43:56;;;;;;;2.83;2.47;;;1.00;99.90;;;;;;5076101;28;20246;-71
2022/01/07 14:46:23;;;;;;;2.60;2.50;;;1.00;99.90;;;;;;5076094;28;20711;-71
2022/01/07 14:48:51;;;;;;;2.30;2.05;;;0.90;99.90;;;;;;5076411;28;20231;-71
2022/01/07 14:51:18;;;;;;;2.17;2.08;;;0.90;99.90;;;;;;5076349;28;20199;-71
2022/01/07 14:53:45;;;;;;;2.25;2.15;;;0.90;99.90;;;;;;5075953;28;20310;-71
2022/01/07 14:56:12;;;;;;;2.13;2.03;;;0.90;99.90;;;;;;5076385;28;20287;-71
2022/01/07 14:58:39;;;;;;;2.55;2.45;;;0.90;99.90;;;;;;5076367;28;20290;-72
2022/01/07 15:01:06;;;;;;;2.50;2.40;;;0.90;99.90;;;;;;5076049;28;20684;-72
2022/01/07 15:03:33;;;;;;;2.95;2.72;;;0.90;99.90;;;;;;5075487;28;20311;-71
2022/01/07 15:06:01;;;;;;;2.10;2.00;;;0.80;99.90;;;;;;5076187;28;20218;-72
2022/01/07 15:08:28;;;;;;;2.10;2.00;;;0.90;99.90;;;;;;5076184;28;20290;-69
2022/01/07 15:10:55;;;;;;;2.25;2.15;;;0.90;99.90;;;;;;5076404;28;20250;-70
2022/01/07 15:13:22;;;;;;;1.95;1.90;;;0.80;99.90;;;;;;5075602;28;20220;-70
2022/01/07 15:18:34;;;;;;;2.33;2.20;;;0.80;99.90;;;;;;5076175;28;20187;-70
2022/01/07 15:21:03;;;;;;;2.83;2.63;;;0.80;99.90;;;;;;5075879;28;20200;-69
2022/01/07 15:23:30;;;;;;;3.03;2.80;;;0.70;99.90;;;;;;5075802;28;20307;-70
2022/01/07 15:25:56;;;;;;;2.78;2.58;;;0.70;99.90;;;;;;5075798;28;20220;-70
2022/01/07 15:28:23;;;;;;;4.30;3.42;;;0.70;99.90;;;;;;5075787;28;20617;-69
2022/01/07 15:30:50;;;;;;;3.00;2.90;;;0.50;99.90;;;;;;5075439;28;20639;-69
2022/01/07 15:33:17;;;;;;;3.13;2.92;;;0.50;99.90;;;;;;5075397;28;20638;-71
2022/01/07 15:35:44;;;;;;;3.00;2.60;;;0.50;99.90;;;;;;5075781;28;20249;-71
2022/01/07 15:38:12;;;;;;;2.47;2.35;;;0.60;99.90;;;;;;5075749;28;20195;-69
2022/01/07 15:40:40;;;;;;;2.42;2.33;;;0.50;99.90;;;;;;5075691;28;20294;-69
2022/01/07 15:43:07;;;;;;;2.72;2.63;;;0.50;99.90;;;;;;5075640;28;20220;-69
2022/01/07 15:45:34;;;;;;;2.10;2.05;;;0.50;99.90;;;;;;5075549;28;20215;-69
2022/01/07 15:48:01;;;;;;;2.72;2.60;;;0.60;99.90;;;;;;5076346;28;20279;-68
2022/01/07 15:50:28;;;;;;;2.40;2.30;;;0.50;99.90;;;;;;5075720;28;20245;-70
2022/01/07 15:52:55;;;;;;;2.20;2.10;;;0.50;99.90;;;;;;5075495;28;20310;-70
2022/01/07 15:55:23;;;;;;;2.03;1.92;;;0.50;99.90;;;;;;5075187;28;20287;-70
2022/01/07 15:57:50;;;;;;;2.05;1.95;;;0.50;99.90;;;;;;5075268;28;20283;-69
2022/01/07 16:00:17;;;;;;;1.83;1.83;;;0.50;99.90;;;;;;5075318;28;20263;-69
2022/01/07 16:02:45;;;;;;;2.13;2.03;;;0.50;99.90;;;;;;5075239;28;20307;-68
2022/01/07 16:05:12;;;;;;;1.65;1.60;;;0.50;99.90;;;;;;5075087;28;20294;-68
2022/01/07 16:07:39;;;;;;;2.13;2.03;;;0.50;99.90;;;;;;5075172;28;20188;-70
2022/01/07 16:10:07;;;;;;;2.20;2.05;;;0.50;99.90;;;;;;5075234;28;20231;-68
2022/01/07 16:12:35;;;;;;;1.70;1.70;;;0.50;99.90;;;;;;5074840;28;20246;-69
2022/01/07 16:15:02;;;;;;;1.70;1.70;;;0.50;99.90;;;;;;5074270;28;20211;-69
2022/01/07 16:17:29;;;;;;;1.98;1.90;;;0.50;99.90;;;;;;5073875;28;20213;-68
2022/01/07 16:19:56;;;;;;;1.92;1.83;;;0.60;99.90;;;;;;5074427;28;20235;-69
2022/01/07 16:22:23;;;;;;;2.22;2.13;;;0.60;99.90;;;;;;5074692;28;20269;-69
2022/01/07 16:24:50;;;;;;;2.00;2.00;;;0.50;99.90;;;;;;5074250;28;20734;-70
2022/01/07 16:27:17;;;;;;;2.13;2.03;;;0.60;99.90;;;;;;5074299;28;20699;-69
2022/01/07 16:29:47;;;;;;;2.03;2.00;;;0.60;99.90;;;;;;5074396;28;20242;-70
2022/01/07 16:32:14;;;;;;;2.28;2.17;;;0.60;99.90;;;;;;5074489;28;20242;-70
2022/01/07 16:34:41;;;;;;;2.20;2.10;;;0.50;99.90;;;;;;5074410;28;20204;-69
2022/01/07 16:37:08;;;;;;;2.50;2.28;;;0.50;99.90;;;;;;5074275;28;20295;-71
2022/01/07 16:39:35;;;;;;;2.28;2.17;;;0.40;99.90;;;;;;5074219;28;20628;-75
2022/01/07 16:42:02;;;;;;;2.90;2.70;;;0.50;99.90;;;;;;5074307;28;20283;-75
2022/01/07 16:44:29;;;;;;;2.40;2.30;;;0.40;99.90;;;;;;5074328;28;20737;-75
2022/01/07 16:46:57;;;;;;;2.45;2.35;;;0.40;99.90;;;;;;5074504;28;20255;-76
2022/01/07 16:49:25;;;;;;;2.00;1.90;;;0.40;99.90;;;;;;5074733;28;20204;-75
2022/01/07 16:51:52;;;;;;;2.75;2.65;;;0.40;99.90;;;;;;5074056;28;20294;-75
2022/01/07 16:54:19;;;;;;;3.33;3.08;;;0.40;99.90;;;;;;5075084;28;20271;-75
2022/01/07 16:56:46;;;;;;;2.63;2.53;;;0.40;99.90;;;;;;5074162;28;20240;-75
2022/01/07 16:59:12;;;;;;;3.40;3.20;;;0.40;99.90;;;;;;5074054;28;20286;-75
2022/01/07 17:01:39;;;;;;;3.25;3.05;;;0.40;99.90;;;;;;5074027;28;20231;-75
2022/01/07 17:04:08;;;;;;;3.10;2.90;;;0.40;99.90;;;;;;5073937;28;20323;-75
2022/01/07 17:06:35;;;;;;;2.67;2.47;;;0.50;99.90;;;;;;5073548;28;20224;-74
2022/01/07 17:09:02;;;;;;;2.70;2.50;;;0.50;99.90;;;;;;5073754;28;20202;-74
2022/01/07 17:11:28;;;;;;;2.55;2.45;;;0.50;99.90;;;;;;5073944;28;20204;-72
2022/01/07 17:13:55;;;;;;;2.50;2.30;;;0.60;99.90;;;;;;5073139;28;20277;-72
2022/01/07 17:16:22;;;;;;;2.28;2.20;;;0.60;99.90;;;;;;5073444;28;20282;-73
2022/01/07 17:18:49;;;;;;;2.67;2.45;;;0.60;99.90;;;;;;5073170;28;20291;-71
2022/01/07 17:21:17;;;;;;;2.67;2.47;;;0.60;99.90;;;;;;5073013;28;20290;-73
2022/01/07 17:23:44;;;;;;;2.40;2.33;;;0.60;99.90;;;;;;5073201;28;20220;-73
2022/01/07 17:26:11;;;;;;;3.25;2.67;;;0.60;99.90;;;;;;5073205;28;20260;-72
2022/01/07 17:28:38;;;;;;;2.47;2.38;;;0.60;99.90;;;;;;5073340;28;20340;-72
2022/01/07 17:31:05;;;;;;;2.10;2.05;;;0.60;99.90;;;;;;5073573;28;20291;-73
2022/01/07 17:33:32;;;;;;;2.33;2.22;;;0.60;99.90;;;;;;5073381;28;20310;-73
2022/01/07 17:35:58;;;;;;;2.65;2.45;;;0.60;99.90;;;;;;5073414;28;20291;-73
2022/01/07 17:38:27;;;;;;;2.35;2.25;;;0.60;99.90;;;;;;5073554;28;20296;-73
2022/01/07 17:40:54;;;;;;;2.30;2.20;;;0.60;99.90;;;;;;5073109;28;20294;-73
2022/01/07 17:43:22;;;;;;;2.25;2.15;;;0.60;99.90;;;;;;5074402;28;20311;-74
2022/01/07 17:45:49;;;;;;;1.88;1.88;;;0.60;99.90;;;;;;5078655;28;20223;-73
2022/01/07 17:48:17;;;;;;;2.25;2.10;;;0.60;99.90;;;;;;5077277;28;20180;-73
2022/01/07 17:50:44;;;;;;;1.98;1.98;;;0.60;99.90;;;;;;5077289;28;20655;-77
2022/01/07 17:53:12;;;;;;;2.17;2.08;;;0.70;99.90;;;;;;5077122;28;20301;-78
2022/01/07 17:55:43;;;;;;;1.90;1.80;;;0.70;99.90;;;;;;5077147;28;20225;-78
2022/01/07 17:58:10;;;;;;;1.83;1.75;;;0.70;99.90;;;;;;5078785;28;20238;-78
2022/01/07 18:00:38;;;;;;;2.00;1.90;;;0.70;99.90;;;;;;5076659;28;20203;-73
2022/01/07 18:03:05;;;;;;;2.35;2.25;;;0.60;99.90;;;;;;5075990;28;20220;-74
2022/01/07 18:05:33;;;;;;;2.10;2.00;;;0.60;99.90;;;;;;5077690;28;20605;-73
2022/01/07 18:08:01;;;;;;;2.20;2.10;;;0.60;99.90;;;;;;5076540;28;20287;-75
2022/01/07 18:10:28;;;;;;;1.90;1.90;;;0.60;99.90;;;;;;5077129;28;20204;-74
2022/01/07 18:12:57;;;;;;;1.63;1.63;;;0.60;99.90;;;;;;5076041;28;20718;-74
2022/01/07 18:15:25;;;;;;;2.05;1.95;;;0.60;99.90;;;;;;5076171;28;20238;-74
2022/01/07 18:17:52;;;;;;;2.22;2.13;;;0.60;99.90;;;;;;5078171;28;20663;-74
2022/01/07 18:20:20;;;;;;;2.40;2.30;;;0.60;99.90;;;;;;5076356;28;20266;-75
2022/01/07 18:22:50;;;;;;;2.05;2.00;;;0.50;99.90;;;;;;5076125;28;20243;-74
2022/01/07 18:25:18;;;;;;;1.80;1.80;;;0.50;99.90;;;;;;5077269;28;20185;-74
2022/01/07 18:27:45;;;;;;;2.17;2.08;;;0.50;99.90;;;;;;5077787;28;20732;-74
2022/01/07 18:30:14;;;;;;;2.03;2.03;;;0.50;99.90;;;;;;5076492;28;20208;-75
2022/01/07 18:32:41;;;;;;;2.33;2.22;;;0.50;99.90;;;;;;5077225;28;20220;-74
2022/01/07 18:35:10;;;;;;;1.90;1.90;;;0.50;99.90;;;;;;5076633;28;20200;-74
2022/01/07 18:37:37;;;;;;;2.28;2.17;;;0.50;99.90;;;;;;5077491;28;20261;-75
2022/01/07 18:40:05;;;;;;;2.25;2.15;;;0.60;99.90;;;;;;5080188;28;20203;-75
2022/01/07 18:42:32;;;;;;;2.10;2.10;;;0.60;99.90;;;;;;5080262;28;20220;-75
2022/01/07 18:45:00;;;;;;;2.10;2.00;;;0.60;99.90;;;;;;5080709;28;20200;-75
2022/01/07 18:47:29;;;;;;;2.25;2.15;;;0.60;99.90;;;;;;5081059;28;20227;-74
2022/01/07 18:49:58;;;;;;;1.92;1.90;;;0.50;99.90;;;;;;5081876;28;20219;-74
2022/01/07 18:52:25;;;;;;;1.80;1.80;;;0.60;99.90;;;;;;5080647;28;20247;-73
2022/01/07 18:54:53;;;;;;;2.17;2.08;;;0.60;99.90;;;;;;5079927;28;20208;-74
2022/01/07 18:57:20;;;;;;;1.67;1.67;;;0.60;99.90;;;;;;5082035;28;20192;-75
2022/01/07 18:59:48;;;;;;;1.58;1.50;;;0.60;99.90;;;;;;5079880;28;20204;-75
2022/01/07 19:02:15;;;;;;;1.85;1.85;;;0.60;99.90;;;;;;5080376;28;20588;-75
2022/01/07 19:04:44;;;;;;;1.83;1.73;;;0.60;99.90;;;;;;5076179;28;20757;-75
2022/01/07 19:07:11;;;;;;;1.55;1.55;;;0.70;99.90;;;;;;5076388;28;20228;-75
2022/01/07 19:09:38;;;;;;;1.92;1.92;;;0.70;99.90;;;;;;5076269;28;20235;-75
2022/01/07 19:12:06;;;;;;;2.42;2.25;;;0.60;99.90;;;;;;5076276;28;20259;-75
2022/01/07 19:14:33;;;;;;;2.30;2.20;;;0.60;99.90;;;;;;5075879;28;20584;-75
2022/01/07 19:17:00;;;;;;;2.00;1.90;;;0.50;99.90;;;;;;5076303;28;20287;-75
2022/01/07 19:19:26;;;;;;;1.90;1.90;;;0.60;99.90;;;;;;5076280;28;20279;-74
2022/01/07 19:21:55;;;;;;;1.80;1.80;;;0.60;99.90;;;;;;5076068;28;20284;-75
2022/01/07 19:24:21;;;;;;;2.00;1.90;;;0.60;99.90;;;;;;5076028;28;20228;-75
2022/01/07 19:26:48;;;;;;;2.08;2.03;;;0.70;99.90;;;;;;5075770;28;20710;-75
2022/01/07 19:29:15;;;;;;;1.75;1.75;;;0.70;99.90;;;;;;5076121;28;20283;-74
2022/01/07 19:31:42;;;;;;;1.80;1.80;;;0.70;99.90;;;;;;5075815;28;20561;-75
2022/01/07 19:34:09;;;;;;;2.03;1.70;;;0.70;99.90;;;;;;5075989;28;20311;-73
2022/01/07 19:36:36;;;;;;;1.70;1.70;;;0.70;99.90;;;;;;5076057;28;20202;-73
2022/01/07 19:39:04;;;;;;;1.60;1.60;;;0.70;99.90;;;;;;5075984;28;20223;-73
2022/01/07 19:41:31;;;;;;;1.73;1.67;;;0.70;99.90;;;;;;5075662;28;20697;-73
2022/01/07 19:43:58;;;;;;;1.58;1.58;;;0.70;99.90;;;;;;5075902;28;20224;-73
2022/01/07 19:46:25;;;;;;;1.30;1.30;;;0.70;99.90;;;;;;5075792;28;20226;-73
2022/01/07 19:48:52;;;;;;;1.55;1.55;;;0.70;99.90;;;;;;5075911;28;20286;-73
2022/01/07 19:51:19;;;;;;;1.73;1.70;;;0.70;99.90;;;;;;5075407;28;20206;-73
2022/01/07 19:53:46;;;;;;;1.35;1.35;;;0.80;99.90;;;;;;5075161;28;20216;-73
2022/01/07 19:56:14;;;;;;;1.27;1.27;;;0.80;99.90;;;;;;5075867;28;20231;-73
2022/01/07 19:58:41;;;;;;;1.40;1.40;;;0.70;99.90;;;;;;5076373;28;20291;-73
2022/01/07 20:01:08;;;;;;;1.20;1.20;;;0.70;99.90;;;;;;5076087;28;20199;-73
2022/01/07 20:03:36;;;;;;;1.20;1.20;;;0.70;99.90;;;;;;5076214;28;20247;-73
2022/01/07 20:06:03;;;;;;;1.10;1.10;;;0.60;99.90;;;;;;5075401;28;20675;-74
2022/01/07 20:08:30;;;;;;;1.00;1.00;;;0.60;99.90;;;;;;5075419;28;20318;-73
2022/01/07 20:10:57;;;;;;;1.00;1.00;;;0.50;99.90;;;;;;5075441;28;20682;-75
2022/01/07 20:13:25;;;;;;;1.30;1.30;;;0.50;99.90;;;;;;5075389;28;20246;-74
2022/01/07 20:15:52;;;;;;;1.02;1.02;;;0.50;99.90;;;;;;5075058;28;20271;-74
2022/01/07 20:18:19;;;;;;;1.30;1.30;;;0.60;99.90;;;;;;5075140;28;20613;-73
2022/01/07 20:20:46;;;;;;;1.10;1.10;;;0.60;99.90;;;;;;5075069;28;20195;-73
2022/01/07 20:23:13;;;;;;;1.15;1.15;;;0.60;99.90;;;;;;5074915;28;20219;-72
2022/01/07 20:25:40;;;;;;;1.52;1.52;;;0.60;99.90;;;;;;5075033;28;20199;-73
2022/01/07 20:28:08;;;;;;;2.10;2.00;;;0.60;99.90;;;;;;5074955;28;20252;-73
2022/01/07 20:30:36;;;;;;;2.10;2.00;;;0.60;99.90;;;;;;5075043;28;20273;-72
2022/01/07 20:33:03;;;;;;;2.10;2.00;;;0.50;99.90;;;;;;5074557;28;20307;-72
2022/01/07 20:35:30;;;;;;;2.65;2.55;;;0.50;99.90;;;;;;5074762;28;20199;-72
2022/01/07 20:37:57;;;;;;;2.10;2.00;;;0.50;99.90;;;;;;5074377;28;20283;-72
2022/01/07 20:40:24;;;;;;;2.00;1.90;;;0.50;99.90;;;;;;5074682;28;20286;-69
2022/01/07 20:42:51;;;;;;;2.25;2.15;;;0.60;99.90;;;;;;5074506;28;20303;-72
2022/01/07 20:45:18;;;;;;;2.53;2.33;;;0.60;99.90;;;;;;5074624;28;20227;-72
2022/01/07 20:47:46;;;;;;;2.33;2.22;;;0.60;99.90;;;;;;5074099;28;20683;-72
2022/01/07 20:50:13;;;;;;;2.47;2.33;;;0.60;99.90;;;;;;5074600;28;20291;-72
2022/01/07 20:52:41;;;;;;;3.67;2.30;;;0.60;99.90;;;;;;5074353;28;20251;-72
2022/01/07 20:55:09;;;;;;;1.70;1.70;;;0.50;99.90;;;;;;5074492;28;20208;-72
2022/01/07 20:57:36;;;;;;;1.80;1.80;;;0.50;99.90;;;;;;5074399;28;20250;-72
2022/01/07 21:00:06;;;;;;;1.58;1.55;;;0.50;99.90;;;;;;5074413;28;20299;-72
2022/01/07 21:02:33;;;;;;;1.60;1.60;;;0.50;99.90;;;;;;5073610;28;20779;-75
2022/01/07 21:05:01;;;;;;;1.52;1.52;;;0.50;99.90;;;;;;5074461;28;20243;-72
2022/01/07 21:07:29;;;;;;;1.50;1.50;;;0.50;99.90;;;;;;5074126;28;20252;-72
2022/01/07 21:09:56;;;;;;;1.60;1.60;;;0.50;99.90;;;;;;5074179;28;20290;-72
2022/01/07 21:12:23;;;;;;;1.50;1.50;;;0.50;99.90;;;;;;5073939;28;20678;-73
2022/01/07 21:14:50;;;;;;;1.38;1.38;;;0.50;99.90;;;;;;5073905;28;20302;-73
2022/01/07 21:17:17;;;;;;;1.63;1.63;;;0.50;99.90;;;;;;5074139;28;20287;-73
2022/01/07 21:19:44;;;;;;;1.95;1.95;;;0.50;99.90;;;;;;5073725;28;20663;-73
2022/01/07 21:22:12;;;;;;;1.20;1.20;;;0.50;99.90;;;;;;5073581;28;20259;-73
2022/01/07 21:24:39;;;;;;;1.52;1.45;;;0.50;99.90;;;;;;5073962;28;20227;-73
2022/01/07 21:27:06;;;;;;;1.30;1.27;;;0.50;99.90;;;;;;5074612;28;20220;-73
2022/01/07 21:29:33;;;;;;;1.63;1.55;;;0.50;99.90;;;;;;5073739;28;20290;-73
2022/01/07 21:32:00;;;;;;;1.75;1.65;;;0.50;99.90;;;;;;5073979;28;20235;-73
2022/01/07 21:34:27;;;;;;;1.67;1.67;;;0.40;99.90;;;;;;5073969;28;20231;-72
2022/01/07 21:36:53;;;;;;;1.42;1.42;;;0.40;99.90;;;;;;5073971;28;20287;-73
2022/01/07 21:39:22;;;;;;;1.50;1.50;;;0.40;99.90;;;;;;5074057;28;20298;-73
2022/01/07 21:41:51;;;;;;;1.50;1.50;;;0.40;99.90;;;;;;5073823;28;20287;-74
2022/01/07 21:44:18;;;;;;;1.38;1.38;;;0.40;99.90;;;;;;5074076;28;20257;-73
2022/01/07 21:46:45;;;;;;;1.30;1.30;;;0.30;99.90;;;;;;5073836;28;20294;-73
2022/01/07 21:49:12;;;;;;;1.65;1.65;;;0.30;99.90;;;;;;5073520;28;20602;-72